Time;durP1;ratioP1;P1;durP2;ratioP2;P2;SDS_P1;SDS_P2;PMS_P1;PMS_P2;Temp;Humidity;BMP_temperature;BMP_pressure;BME280_temperature;BME280_humidity;BME280_pressure;Samples;Min_cycle;Max_cycle;Signal;HPM_P1;HPM_P2
2022/12/21 00:01:08;;;;;;;8.40;7.80;;;;;;;9.41;97.76;99809.97;5017167;28;20210;-79
2022/12/21 00:03:36;;;;;;;8.13;7.53;;;;;;;9.47;97.33;99817.63;5021032;28;20276;-80
2022/12/21 00:06:03;;;;;;;8.73;8.03;;;;;;;9.49;96.93;99828.88;5019817;28;20195;-80
2022/12/21 00:08:30;;;;;;;8.87;8.17;;;;;;;9.53;96.73;99830.50;5021163;28;20213;-80
2022/12/21 00:10:58;;;;;;;8.63;8.03;;;;;;;9.55;96.44;99849.56;5020985;28;20218;-80
2022/12/21 00:13:25;;;;;;;8.13;7.47;;;;;;;9.48;96.98;99835.00;5024095;28;20221;-80
2022/12/21 00:15:56;;;;;;;7.87;7.30;;;;;;;9.53;96.75;99835.72;5022183;28;20198;-80
2022/12/21 00:18:23;;;;;;;7.80;7.20;;;;;;;9.43;97.38;99848.09;5021545;28;20198;-80
2022/12/21 00:20:58;;;;;;;8.50;7.90;;;;;;;9.34;98.92;99807.50;5020244;28;20723;-79
2022/12/21 00:23:25;;;;;;;8.50;7.90;;;;;;;9.30;99.84;99789.41;5019434;28;20249;-80
2022/12/21 00:25:51;;;;;;;9.10;8.40;;;;;;;9.28;100.00;99775.56;5020796;28;20209;-80
2022/12/21 00:28:17;;;;;;;10.27;9.47;;;;;;;9.25;100.00;99753.03;5020903;28;20998;-80
2022/12/21 00:30:44;;;;;;;9.03;8.33;;;;;;;9.33;100.00;99758.91;5019583;28;20237;-79
2022/12/21 00:33:11;;;;;;;8.97;8.27;;;;;;;9.37;100.00;99753.63;5021060;28;20259;-80
2022/12/21 00:35:39;;;;;;;9.50;8.80;;;;;;;9.30;100.00;99742.53;5021183;28;20659;-80
2022/12/21 00:38:06;;;;;;;8.17;7.63;;;;;;;9.34;100.00;99747.63;5021427;28;20255;-80
2022/12/21 00:40:33;;;;;;;9.87;9.17;;;;;;;9.32;100.00;99745.94;5028183;28;20260;-80
2022/12/21 00:42:59;;;;;;;9.13;8.53;;;;;;;9.34;100.00;99749.38;5030809;28;20296;-80
2022/12/21 00:45:25;;;;;;;9.37;8.63;;;;;;;9.34;100.00;99760.63;5030821;28;20213;-80
2022/12/21 00:47:51;;;;;;;9.60;8.70;;;;;;;9.36;100.00;99764.97;5031294;28;20205;-80
2022/12/21 00:50:18;;;;;;;9.57;8.87;;;;;;;9.28;100.00;99768.59;5031790;28;20229;-81
2022/12/21 00:52:44;;;;;;;9.57;8.87;;;;;;;9.32;100.00;99757.22;5035783;28;20238;-80
2022/12/21 00:55:12;;;;;;;8.97;8.27;;;;;;;9.36;100.00;99763.22;5037079;28;20605;-79
2022/12/21 00:57:38;;;;;;;9.00;8.40;;;;;;;9.37;100.00;99779.69;5036128;28;20203;-80
2022/12/21 01:00:05;;;;;;;9.80;8.93;;;;;;;9.19;100.00;99776.63;5036671;28;20291;-80
2022/12/21 01:02:31;;;;;;;10.03;9.33;;;;;;;9.23;100.00;99759.19;5037576;28;20296;-80
2022/12/21 01:05:00;;;;;;;9.97;9.27;;;;;;;9.21;100.00;99756.63;5036737;28;20305;-80
2022/12/21 01:07:26;;;;;;;10.43;9.63;;;;;;;9.13;100.00;99751.59;5036765;28;20217;-78
2022/12/21 01:09:53;;;;;;;11.43;10.53;;;;;;;9.21;100.00;99747.94;5036792;28;20206;-80
2022/12/21 01:12:21;;;;;;;10.03;9.33;;;;;;;9.20;100.00;99760.13;5037115;28;20230;-80
2022/12/21 01:14:47;;;;;;;9.60;8.80;;;;;;;9.21;100.00;99764.41;5037367;28;20754;-79
2022/12/21 01:17:15;;;;;;;10.17;9.47;;;;;;;9.28;100.00;99762.53;5036683;28;20210;-80
2022/12/21 01:19:41;;;;;;;10.20;9.50;;;;;;;9.22;100.00;99781.78;5036933;28;20236;-80
2022/12/21 01:22:07;;;;;;;10.40;9.60;;;;;;;9.09;100.00;99770.78;5036352;28;20279;-80
2022/12/21 01:24:33;;;;;;;10.83;10.03;;;;;;;9.06;100.00;99762.22;5036908;28;20625;-80
2022/12/21 01:27:00;;;;;;;11.70;10.80;;;;;;;9.11;100.00;99770.75;5037153;28;20210;-80
2022/12/21 01:29:27;;;;;;;10.43;9.73;;;;;;;9.14;100.00;99776.75;5036568;28;20210;-80
2022/12/21 01:31:54;;;;;;;11.33;10.43;;;;;;;9.00;100.00;99778.81;5036154;28;20210;-80
2022/12/21 01:34:20;;;;;;;10.93;10.03;;;;;;;9.09;100.00;99786.41;5036938;28;20206;-81
2022/12/21 01:36:47;;;;;;;11.47;10.67;;;;;;;9.04;100.00;99787.41;5036285;28;20746;-81
2022/12/21 01:39:14;;;;;;;10.33;9.63;;;;;;;9.19;100.00;99783.59;5036846;28;20233;-79
2022/12/21 01:41:40;;;;;;;11.03;10.13;;;;;;;9.09;100.00;99799.41;5036167;28;20210;-81
2022/12/21 01:44:39;;;;;;;11.13;10.33;;;;;;;9.14;100.00;99805.38;5036847;28;20230;-81
2022/12/21 01:47:11;;;;;;;10.93;10.13;;;;;;;9.15;100.00;99804.47;5036498;28;20209;-81
2022/12/21 01:49:37;;;;;;;11.33;10.53;;;;;;;9.13;100.00;99811.47;5036471;28;20415;-81
2022/12/21 01:52:08;;;;;;;11.90;11.00;;;;;;;9.11;100.00;99820.22;5035760;28;20604;-81
2022/12/21 01:54:38;;;;;;;11.67;10.87;;;;;;;9.02;100.00;99807.41;5036423;28;20202;-81
2022/12/21 01:57:08;;;;;;;12.70;11.70;;;;;;;9.11;100.00;99812.41;5036474;28;20256;-81
2022/12/21 01:59:38;;;;;;;11.83;11.00;;;;;;;9.08;100.00;99812.50;5036363;28;20226;-81
2022/12/21 02:02:12;;;;;;;13.17;12.27;;;;;;;9.03;100.00;99812.59;5035826;28;20785;-81
2022/12/21 02:04:40;;;;;;;13.07;12.03;;;;;;;9.05;100.00;99810.78;5035505;28;20740;-81
2022/12/21 02:07:07;;;;;;;13.40;12.23;;;;;;;9.03;100.00;99811.72;5036270;28;20206;-80
2022/12/21 02:09:35;;;;;;;12.50;11.47;;;;;;;9.15;100.00;99820.09;5035359;28;20198;-81
2022/12/21 02:12:05;;;;;;;12.77;11.77;;;;;;;9.02;100.00;99833.44;5035702;28;20206;-80
2022/12/21 02:14:33;;;;;;;11.77;10.97;;;;;;;9.13;100.00;99826.25;5036258;28;20206;-81
2022/12/21 02:17:10;;;;;;;12.17;11.27;;;;;;;9.21;100.00;99842.53;5035941;28;20217;-79
2022/12/21 02:20:19;;;;;;;12.57;11.67;;;;;;;9.25;100.00;99867.63;5036209;28;20225;-81
2022/12/21 02:23:08;;;;;;;12.30;11.50;;;;;;;9.26;100.00;99877.16;5037109;28;20233;-81
2022/12/21 02:25:54;;;;;;;13.37;11.27;;;;;;;9.20;100.00;99876.47;5035438;28;20202;-80
2022/12/21 02:28:50;;;;;;;12.80;11.80;;;;;;;9.10;100.00;99875.81;5036341;28;20248;-81
2022/12/21 02:31:25;;;;;;;11.83;10.93;;;;;;;9.17;100.00;99863.50;5022076;28;20206;-81
2022/12/21 02:34:06;;;;;;;11.20;10.27;;;;;;;9.14;100.00;99874.84;5035829;28;20226;-79
2022/12/21 02:36:42;;;;;;;12.17;11.27;;;;;;;9.12;99.67;99889.66;5036427;28;20216;-80
2022/12/21 02:39:19;;;;;;;13.73;12.73;;;;;;;9.17;99.60;99899.94;5036388;28;20256;-81
2022/12/21 02:41:59;;;;;;;12.57;11.67;;;;;;;9.18;99.09;99899.03;5035501;28;20264;-80
2022/12/21 02:44:37;;;;;;;12.73;11.83;;;;;;;9.22;98.89;99906.78;5036202;28;20229;-80
2022/12/21 02:47:10;;;;;;;12.53;11.53;;;;;;;9.21;98.52;99910.25;5035462;28;20232;-80
2022/12/21 02:49:42;;;;;;;12.57;11.57;;;;;;;9.26;97.80;99923.19;5036001;28;20202;-81
2022/12/21 02:52:15;;;;;;;11.70;10.90;;;;;;;9.25;97.17;99943.16;5034650;28;20268;-79
2022/12/21 02:54:43;;;;;;;12.63;11.73;;;;;;;9.08;96.93;99955.69;5035525;28;20256;-79
2022/12/21 02:57:10;;;;;;;14.20;13.13;;;;;;;8.94;98.35;99942.94;5035183;28;20231;-81
2022/12/21 02:59:43;;;;;;;14.33;13.33;;;;;;;9.02;98.45;99929.75;5035428;28;20226;-81
2022/12/21 03:02:33;;;;;;;13.50;12.53;;;;;;;9.04;98.42;99921.03;5034756;28;20229;-80
2022/12/21 03:05:19;;;;;;;13.33;12.33;;;;;;;9.04;98.55;99923.66;5035130;28;20745;-80
2022/12/21 03:07:58;;;;;;;13.73;12.73;;;;;;;9.00;98.88;99906.38;5035972;28;20206;-80
2022/12/21 03:10:34;;;;;;;13.47;12.47;;;;;;;9.05;98.65;99906.28;5035472;28;20202;-80
2022/12/21 03:13:13;;;;;;;13.57;12.57;;;;;;;9.11;98.08;99919.16;5035826;28;20230;-81
2022/12/21 03:15:47;;;;;;;14.30;13.00;;;;;;;9.09;97.50;99934.81;5035557;28;20210;-80
2022/12/21 03:18:23;;;;;;;13.23;12.33;;;;;;;9.13;97.43;99943.41;5035607;28;20260;-81
2022/12/21 03:20:59;;;;;;;13.73;12.83;;;;;;;9.11;97.40;99953.00;5035382;28;20364;-81
2022/12/21 03:23:32;;;;;;;13.47;12.47;;;;;;;9.14;96.86;99963.38;5035818;28;20778;-79
2022/12/21 03:26:04;;;;;;;14.07;13.07;;;;;;;9.00;96.95;99965.38;5035040;28;20217;-81
2022/12/21 03:28:34;;;;;;;13.77;12.77;;;;;;;8.97;97.39;99955.88;5035678;28;20209;-80
2022/12/21 03:31:05;;;;;;;13.43;12.43;;;;;;;8.99;96.75;99956.72;5034600;28;20229;-81
2022/12/21 03:33:38;;;;;;;12.57;11.63;;;;;;;8.96;96.57;99964.59;5035906;28;20226;-80
2022/12/21 03:36:10;;;;;;;13.03;11.93;;;;;;;8.94;96.78;99963.78;5035267;28;20206;-81
2022/12/21 03:38:43;;;;;;;12.47;11.50;;;;;;;8.92;96.84;99955.16;5035181;28;20214;-80
2022/12/21 03:41:16;;;;;;;13.27;12.37;;;;;;;8.90;97.01;99949.09;5034320;28;20236;-80
2022/12/21 03:43:43;;;;;;;13.50;12.40;;;;;;;8.85;97.22;99956.13;5035293;28;20233;-81
2022/12/21 03:46:16;;;;;;;13.27;12.37;;;;;;;8.75;98.47;99940.69;5034921;28;20585;-80
2022/12/21 03:48:49;;;;;;;12.60;11.70;;;;;;;8.80;98.84;99914.59;5034499;28;20263;-80
2022/12/21 03:51:21;;;;;;;13.17;12.07;;;;;;;8.85;98.51;99923.16;5034670;28;20673;-80
2022/12/21 03:53:54;;;;;;;13.93;12.70;;;;;;;8.85;98.01;99922.31;5034310;28;20288;-80
2022/12/21 03:56:24;;;;;;;12.43;11.53;;;;;;;8.87;98.11;99917.94;5035206;28;20210;-80
2022/12/21 03:58:50;;;;;;;12.57;11.73;;;;;;;8.85;98.26;99914.50;5034860;28;20751;-80
2022/12/21 04:01:23;;;;;;;13.20;12.20;;;;;;;8.83;97.74;99911.06;5033960;28;20645;-80
2022/12/21 04:03:55;;;;;;;14.63;13.40;;;;;;;8.78;98.34;99905.97;5034280;28;20269;-80
2022/12/21 04:06:24;;;;;;;14.87;13.77;;;;;;;8.81;98.40;99905.03;5035460;28;20210;-80
2022/12/21 04:08:51;;;;;;;14.83;13.80;;;;;;;8.74;99.32;99883.47;5034846;28;20210;-80
2022/12/21 04:13:58;;;;;;;14.60;13.50;;;;;;;8.76;99.56;99871.31;5033776;28;20673;-80
2022/12/21 04:16:24;;;;;;;16.30;15.20;;;;;;;8.71;100.00;99863.59;5034441;28;20260;-80
2022/12/21 04:21:36;;;;;;;14.87;13.67;;;;;;;8.68;100.00;99829.84;5034220;28;20229;-81
2022/12/21 04:29:31;;;;;;;14.37;13.27;;;;;;;8.62;100.00;99861.19;5038301;28;20205;-81
2022/12/21 04:31:57;;;;;;;16.20;14.93;;;;;;;8.65;100.00;99850.72;5053243;28;20207;-80
2022/12/21 04:34:25;;;;;;;14.73;13.63;;;;;;;8.71;100.00;99841.91;5058502;28;20205;-81
2022/12/21 04:39:35;;;;;;;16.57;15.27;;;;;;;8.54;100.00;99824.03;5057887;28;20281;-81
2022/12/21 04:42:01;;;;;;;16.40;15.10;;;;;;;8.56;100.00;99798.84;5057238;28;20749;-81
2022/12/21 04:44:27;;;;;;;16.13;14.90;;;;;;;8.68;100.00;99793.41;5057810;28;20209;-81
2022/12/21 04:46:54;;;;;;;15.20;14.00;;;;;;;8.77;100.00;99807.97;5057437;28;20609;-81
2022/12/21 04:49:20;;;;;;;15.37;14.27;;;;;;;8.83;100.00;99833.00;5057872;28;20255;-81
2022/12/21 04:51:48;;;;;;;14.00;13.00;;;;;;;8.84;100.00;99845.09;5057405;28;20377;-80
2022/12/21 04:54:14;;;;;;;16.13;14.73;;;;;;;8.89;99.83;99872.75;5057514;28;20207;-80
2022/12/21 04:56:40;;;;;;;14.97;13.87;;;;;;;8.94;99.22;99893.50;5058060;28;20201;-80
2022/12/21 04:59:06;;;;;;;14.70;13.60;;;;;;;8.84;98.97;99897.16;5057674;28;20209;-80
2022/12/21 05:01:33;;;;;;;15.27;14.17;;;;;;;8.87;98.72;99905.75;5057295;28;20247;-79
2022/12/21 05:03:59;;;;;;;15.00;13.87;;;;;;;8.86;98.58;99905.78;5056828;28;20221;-80
2022/12/21 05:06:27;;;;;;;15.27;14.17;;;;;;;8.81;98.37;99898.09;5058471;28;20258;-80
2022/12/21 05:08:57;;;;;;;16.80;15.60;;;;;;;8.82;99.10;99889.41;5058458;28;20827;-81
2022/12/21 05:11:24;;;;;;;15.20;14.10;;;;;;;8.80;98.85;99880.78;5058063;28;20263;-80
2022/12/21 05:13:51;;;;;;;15.80;14.60;;;;;;;8.80;99.38;99877.28;5057313;28;20284;-81
2022/12/21 05:16:19;;;;;;;17.43;16.10;;;;;;;8.79;99.41;99886.84;5057255;28;20209;-80
2022/12/21 05:18:48;;;;;;;15.87;14.43;;;;;;;8.78;99.35;99889.47;5057164;28;20197;-80
2022/12/21 05:21:14;;;;;;;14.83;13.67;;;;;;;8.81;99.63;99882.47;5056712;28;20225;-80
2022/12/21 05:23:41;;;;;;;17.10;15.60;;;;;;;8.81;99.73;99885.06;5057235;28;20675;-81
2022/12/21 05:26:10;;;;;;;16.10;14.70;;;;;;;8.78;100.00;99863.44;5057198;28;20268;-81
2022/12/21 05:28:36;;;;;;;16.50;15.30;;;;;;;8.69;100.00;99865.38;5056981;28;20202;-81
2022/12/21 05:31:03;;;;;;;16.43;14.93;;;;;;;8.77;100.00;99840.94;5056581;28;20201;-80
2022/12/21 05:33:30;;;;;;;14.20;13.10;;;;;;;8.79;100.00;99836.56;5057291;28;20244;-80
2022/12/21 05:35:56;;;;;;;16.97;15.57;;;;;;;8.79;100.00;99834.81;5056205;28;20204;-80
2022/12/21 05:38:22;;;;;;;16.30;15.00;;;;;;;8.83;100.00;99841.66;5056384;28;20251;-80
2022/12/21 05:40:49;;;;;;;14.90;13.80;;;;;;;8.82;99.62;99852.09;5056247;28;20225;-80
2022/12/21 05:43:17;;;;;;;15.60;14.10;;;;;;;8.82;99.91;99857.28;5056578;28;20271;-81
2022/12/21 05:45:44;;;;;;;15.57;14.37;;;;;;;8.81;100.00;99850.38;5056416;28;20270;-80
2022/12/21 05:48:10;;;;;;;14.70;13.67;;;;;;;8.80;99.77;99861.69;5057075;28;20586;-81
2022/12/21 05:50:38;;;;;;;15.63;14.43;;;;;;;8.85;99.83;99863.28;5056514;28;20593;-80
2022/12/21 05:53:05;;;;;;;16.50;15.30;;;;;;;8.86;99.40;99862.41;5056075;28;20295;-80
2022/12/21 05:55:31;;;;;;;16.40;15.20;;;;;;;8.81;99.89;99856.44;5056319;28;20211;-81
2022/12/21 05:57:58;;;;;;;16.00;14.70;;;;;;;8.83;100.00;99853.81;5056159;28;20227;-80
2022/12/21 06:00:25;;;;;;;17.80;16.40;;;;;;;8.74;100.00;99840.13;5055741;28;20279;-80
2022/12/21 06:02:52;;;;;;;17.63;16.23;;;;;;;8.72;100.00;99813.28;5055761;28;20367;-81
2022/12/21 06:05:18;;;;;;;16.87;15.67;;;;;;;8.81;100.00;99814.81;5055965;28;20205;-81
2022/12/21 06:07:45;;;;;;;17.30;16.00;;;;;;;8.79;100.00;99805.34;5055898;28;20572;-80
2022/12/21 06:10:11;;;;;;;16.70;15.40;;;;;;;8.71;100.00;99797.69;5055837;28;20209;-80
2022/12/21 06:12:37;;;;;;;18.33;16.83;;;;;;;8.75;100.00;99799.34;5056261;28;20260;-80
2022/12/21 06:15:05;;;;;;;16.73;15.23;;;;;;;8.80;100.00;99807.03;5055977;28;20206;-79
2022/12/21 06:17:33;;;;;;;16.03;14.83;;;;;;;8.70;100.00;99811.56;5055977;28;20204;-81
2022/12/21 06:20:01;;;;;;;18.27;16.87;;;;;;;8.72;100.00;99812.41;5055517;28;20676;-79
2022/12/21 06:22:27;;;;;;;16.70;15.40;;;;;;;8.80;100.00;99809.63;5055954;28;20252;-81
2022/12/21 06:24:53;;;;;;;18.93;17.43;;;;;;;8.73;100.00;99803.72;5055690;28;20738;-80
2022/12/21 06:27:20;;;;;;;17.13;15.93;;;;;;;8.71;100.00;99798.53;5055987;28;20266;-80
2022/12/21 06:29:46;;;;;;;17.27;15.97;;;;;;;8.73;100.00;99799.34;5055439;28;20283;-80
2022/12/21 06:32:12;;;;;;;18.40;16.90;;;;;;;8.72;100.00;99810.66;5055106;28;20221;-80
2022/12/21 06:34:40;;;;;;;18.27;16.87;;;;;;;8.70;100.00;99785.56;5055191;28;20206;-80
2022/12/21 06:37:06;;;;;;;20.13;18.20;;;;;;;8.72;100.00;99766.44;5055635;28;20202;-80
2022/12/21 06:39:32;;;;;;;18.03;16.63;;;;;;;8.71;100.00;99785.53;5055769;28;20259;-80
2022/12/21 06:41:59;;;;;;;18.33;16.83;;;;;;;8.73;100.00;99768.13;5054925;28;20226;-80
2022/12/21 06:44:25;;;;;;;17.03;15.63;;;;;;;8.73;100.00;99781.16;5055258;28;20201;-80
2022/12/21 06:46:51;;;;;;;17.83;16.43;;;;;;;8.74;100.00;99801.09;5055396;28;20206;-80
2022/12/21 06:49:18;;;;;;;16.47;15.07;;;;;;;8.73;100.00;99814.97;5054712;28;20265;-80
2022/12/21 06:51:45;;;;;;;16.93;15.63;;;;;;;8.74;100.00;99829.72;5055132;28;20628;-80
2022/12/21 06:54:12;;;;;;;16.97;15.67;;;;;;;8.74;100.00;99831.44;5055278;28;20271;-80
2022/12/21 06:56:38;;;;;;;16.80;15.50;;;;;;;8.69;100.00;99841.09;5055177;28;20282;-80
2022/12/21 06:59:22;;;;;;;18.30;16.80;;;;;;;8.67;100.00;99842.88;5056445;28;20209;-80
2022/12/21 07:04:14;;;;;;;16.83;15.32;;;;;;;8.68;100.00;99834.16;5062397;22;20233;-78
2022/12/21 07:06:41;;;;;;;16.23;14.93;;;;;;;8.71;100.00;99849.72;5056060;28;20209;-79
2022/12/21 07:09:11;;;;;;;17.07;15.67;;;;;;;8.71;100.00;99847.97;5055364;28;20255;-79
2022/12/21 07:11:38;;;;;;;17.07;15.67;;;;;;;8.77;100.00;99846.16;5055507;28;20216;-79
2022/12/21 07:14:04;;;;;;;15.80;14.50;;;;;;;8.76;100.00;99850.50;5056008;28;20545;-79
2022/12/21 07:16:30;;;;;;;16.27;15.07;;;;;;;8.79;100.00;99870.38;5055430;28;20214;-79
2022/12/21 07:18:57;;;;;;;17.73;15.87;;;;;;;8.82;100.00;99873.78;5054902;28;20275;-79
2022/12/21 07:21:23;;;;;;;16.67;15.00;;;;;;;8.84;100.00;99882.41;5054889;28;20229;-79
2022/12/21 07:23:50;;;;;;;17.63;16.23;;;;;;;8.83;100.00;99890.25;5055838;28;20209;-79
2022/12/21 07:26:20;;;;;;;16.10;14.90;;;;;;;8.84;100.00;99889.34;5055682;28;20209;-79
2022/12/21 07:28:47;;;;;;;16.03;14.80;;;;;;;8.86;100.00;99888.44;5054203;28;20707;-78
2022/12/21 07:31:16;;;;;;;16.33;14.90;;;;;;;8.79;100.00;99886.00;5053724;28;20202;-77
2022/12/21 07:33:43;;;;;;;17.33;15.97;;;;;;;8.78;100.00;99881.66;5054311;28;20216;-78
2022/12/21 07:36:10;;;;;;;15.67;14.27;;;;;;;8.85;100.00;99871.09;5057614;28;20205;-82
2022/12/21 07:38:38;;;;;;;16.40;15.10;;;;;;;8.85;100.00;99881.50;5057558;28;20283;-80
2022/12/21 07:41:06;;;;;;;15.63;14.33;;;;;;;8.85;100.00;99881.50;5055255;28;20230;-81
2022/12/21 07:43:34;;;;;;;17.47;15.70;;;;;;;8.79;100.00;99892.06;5055360;28;20201;-82
2022/12/21 07:46:02;;;;;;;15.70;14.40;;;;;;;8.77;100.00;99874.75;5054702;28;20216;-79
2022/12/21 07:48:28;;;;;;;16.97;15.43;;;;;;;8.75;100.00;99857.44;5054639;28;20222;-79
2022/12/21 07:50:55;;;;;;;16.00;14.70;;;;;;;8.81;100.00;99868.59;5054517;28;20588;-80
2022/12/21 07:53:22;;;;;;;17.17;15.77;;;;;;;8.74;100.00;99871.34;5054708;28;20209;-82
2022/12/21 07:55:49;;;;;;;15.57;14.37;;;;;;;8.78;100.00;99860.84;5054509;28;20304;-78
2022/12/21 07:58:15;;;;;;;15.20;14.00;;;;;;;8.78;100.00;99861.72;5054759;28;20784;-80
2022/12/21 08:00:43;;;;;;;16.43;15.13;;;;;;;8.83;100.00;99870.28;5053826;28;20209;-79
2022/12/21 08:03:09;;;;;;;15.77;14.47;;;;;;;8.89;100.00;99872.75;5054629;28;20228;-80
2022/12/21 08:05:36;;;;;;;15.83;14.53;;;;;;;8.93;100.00;99870.94;5054012;28;20675;-76
2022/12/21 08:08:03;;;;;;;15.93;14.73;;;;;;;8.86;100.00;99866.75;5052351;28;20298;-77
2022/12/21 08:10:29;;;;;;;16.67;15.27;;;;;;;8.91;100.00;99859.72;5051703;28;20209;-77
2022/12/21 08:12:56;;;;;;;15.70;14.40;;;;;;;8.95;100.00;99858.75;5052127;28;20205;-77
2022/12/21 08:15:23;;;;;;;16.33;14.73;;;;;;;9.01;100.00;99860.38;5052017;28;20205;-77
2022/12/21 08:17:51;;;;;;;16.13;14.60;;;;;;;9.00;100.00;99851.72;5052406;28;20243;-77
2022/12/21 08:20:18;;;;;;;15.33;14.03;;;;;;;9.05;100.00;99849.00;5051697;28;20619;-75
2022/12/21 08:22:44;;;;;;;15.17;13.87;;;;;;;9.09;100.00;99843.69;5051355;28;20286;-75
2022/12/21 08:25:11;;;;;;;15.20;13.93;;;;;;;9.10;100.00;99848.00;5051328;28;20733;-75
2022/12/21 08:27:38;;;;;;;13.87;12.67;;;;;;;9.06;100.00;99848.97;5051434;28;20270;-76
2022/12/21 08:30:06;;;;;;;14.67;13.50;;;;;;;9.08;100.00;99844.59;5050980;28;20284;-76
2022/12/21 08:32:32;;;;;;;13.23;12.13;;;;;;;9.06;100.00;99829.91;5051285;28;20683;-75
2022/12/21 08:35:00;;;;;;;13.00;11.97;;;;;;;9.14;100.00;99791.53;5051286;28;20201;-75
2022/12/21 08:37:26;;;;;;;13.60;12.50;;;;;;;9.13;100.00;99774.16;5051644;28;20252;-76
2022/12/21 08:39:53;;;;;;;13.70;12.60;;;;;;;9.13;100.00;99785.44;5051033;28;20705;-76
2022/12/21 08:42:19;;;;;;;13.40;12.30;;;;;;;9.15;100.00;99781.03;5051035;28;20583;-76
2022/12/21 08:44:47;;;;;;;12.67;11.67;;;;;;;9.20;100.00;99775.75;5051321;28;20212;-78
2022/12/21 08:47:14;;;;;;;15.05;13.93;;;;;;;9.28;100.00;99773.81;5053005;28;20925;-78
2022/12/21 08:49:40;;;;;;;13.93;12.83;;;;;;;9.33;100.00;99784.94;5051230;28;20721;-77
2022/12/21 08:52:08;;;;;;;14.17;13.00;;;;;;;9.29;100.00;99795.50;5053965;28;20208;-76
2022/12/21 08:54:34;;;;;;;13.40;12.33;;;;;;;9.33;100.00;99789.31;5052196;28;20255;-76
2022/12/21 08:57:01;;;;;;;11.57;10.67;;;;;;;9.38;100.00;99790.06;5053930;28;20283;-77
2022/12/21 08:59:27;;;;;;;11.80;10.80;;;;;;;9.45;100.00;99794.22;5055015;28;20202;-78
2022/12/21 09:01:54;;;;;;;11.20;10.30;;;;;;;9.36;100.00;99797.06;5052915;28;20279;-77
2022/12/21 09:04:20;;;;;;;11.67;10.67;;;;;;;9.40;100.00;99793.50;5051438;28;20209;-76
2022/12/21 09:06:47;;;;;;;9.77;8.97;;;;;;;9.47;100.00;99802.84;5051281;28;20201;-77
2022/12/21 09:09:14;;;;;;;9.20;8.40;;;;;;;9.50;100.00;99802.78;5051187;28;20660;-77
2022/12/21 09:11:41;;;;;;;10.27;9.37;;;;;;;9.51;100.00;99807.13;5052659;28;20208;-77
2022/12/21 09:14:07;;;;;;;8.93;8.23;;;;;;;9.59;100.00;99811.25;5055049;28;20271;-77
2022/12/21 09:16:34;;;;;;;10.73;9.83;;;;;;;9.61;100.00;99828.56;5055418;28;20210;-77
2022/12/21 09:19:00;;;;;;;10.13;9.33;;;;;;;9.57;100.00;99836.50;5055206;28;20240;-77
2022/12/21 09:21:27;;;;;;;9.20;8.50;;;;;;;9.48;100.00;99827.19;5054698;28;20233;-76
2022/12/21 09:23:53;;;;;;;9.03;8.33;;;;;;;9.56;100.00;99833.03;5055023;28;20232;-77
2022/12/21 09:26:21;;;;;;;9.67;8.87;;;;;;;9.59;100.00;99845.13;5054114;28;20663;-76
2022/12/21 09:28:47;;;;;;;8.60;7.90;;;;;;;9.59;100.00;99834.72;5054811;28;20233;-77
2022/12/21 09:31:16;;;;;;;9.47;8.67;;;;;;;9.68;100.00;99837.94;5054288;28;20206;-77
2022/12/21 09:33:43;;;;;;;10.43;9.63;;;;;;;9.71;100.00;99843.09;5054903;28;20222;-77
2022/12/21 09:36:11;;;;;;;9.60;8.90;;;;;;;9.76;100.00;99845.59;5054911;28;20260;-77
2022/12/21 09:38:38;;;;;;;10.63;9.83;;;;;;;9.73;100.00;99848.25;5055256;28;20221;-76
2022/12/21 09:41:27;;;;;;;10.30;9.50;;;;;;;9.81;100.00;99845.44;5054731;28;20244;-77
2022/12/21 09:44:11;;;;;;;12.33;11.23;;;;;;;9.71;100.00;99839.63;5054973;28;20347;-77
2022/12/21 09:46:41;;;;;;;14.00;12.90;;;;;;;9.72;100.00;99833.53;5054671;28;20205;-77
2022/12/21 09:49:14;;;;;;;10.97;10.07;;;;;;;9.67;100.00;99830.16;5054487;28;20737;-76
2022/12/21 09:51:46;;;;;;;12.13;10.93;;;;;;;9.74;100.00;99824.75;5054197;28;20243;-76
2022/12/21 09:54:16;;;;;;;10.43;9.63;;;;;;;9.80;100.00;99820.31;5054798;28;20208;-77
2022/12/21 09:56:49;;;;;;;13.43;12.33;;;;;;;9.52;100.00;99834.88;5054641;28;20216;-76
2022/12/21 09:59:20;;;;;;;12.77;11.77;;;;;;;9.64;100.00;99845.91;5055182;28;20213;-77
2022/12/21 10:01:57;;;;;;;13.83;12.73;;;;;;;9.57;100.00;99860.81;5053845;28;20286;-76
2022/12/21 10:04:39;;;;;;;14.87;13.57;;;;;;;9.28;100.00;99870.16;5054427;28;20662;-76
2022/12/21 10:07:36;;;;;;;16.13;14.83;;;;;;;9.25;100.00;99848.53;5054512;28;20221;-77
2022/12/21 10:10:15;;;;;;;14.93;13.60;;;;;;;9.26;100.00;99840.69;5053753;28;20266;-77
2022/12/21 10:12:53;;;;;;;14.30;13.20;;;;;;;9.41;100.00;99843.84;5054265;28;20200;-77
2022/12/21 10:15:31;;;;;;;14.33;13.10;;;;;;;9.47;100.00;99848.91;5054405;28;20209;-77
2022/12/21 10:18:11;;;;;;;13.00;11.80;;;;;;;9.51;100.00;99864.44;5054173;28;20264;-77
2022/12/21 10:20:48;;;;;;;12.87;11.80;;;;;;;9.57;100.00;99873.81;5053978;28;20288;-77
2022/12/21 10:23:21;;;;;;;12.90;11.83;;;;;;;9.62;100.00;99873.75;5054026;28;20247;-76
2022/12/21 10:25:51;;;;;;;13.17;12.00;;;;;;;9.63;100.00;99885.84;5054065;28;20210;-77
2022/12/21 10:28:37;;;;;;;12.10;11.10;;;;;;;9.64;100.00;99879.78;5053796;28;20655;-77
2022/12/21 10:31:06;;;;;;;11.93;10.93;;;;;;;9.67;100.00;99879.69;5053498;28;20217;-77
2022/12/21 10:33:37;;;;;;;12.07;11.07;;;;;;;9.66;100.00;99873.63;5053622;28;20196;-77
2022/12/21 10:36:05;;;;;;;12.00;10.83;;;;;;;9.63;100.00;99876.31;5054126;28;20214;-76
2022/12/21 10:38:34;;;;;;;12.20;11.20;;;;;;;9.51;100.00;99841.00;5051235;28;20233;-77
2022/12/21 10:41:03;;;;;;;12.30;11.20;;;;;;;9.59;100.00;99835.56;5052371;28;20206;-77
2022/12/21 10:43:34;;;;;;;12.00;11.03;;;;;;;9.65;100.00;99832.84;5053006;28;20454;-77
2022/12/21 10:46:00;;;;;;;11.43;10.33;;;;;;;9.66;100.00;99829.31;5053612;28;20205;-77
2022/12/21 10:48:27;;;;;;;13.67;11.70;;;;;;;9.50;100.00;99805.38;5053294;28;20290;-76
2022/12/21 10:50:54;;;;;;;12.73;11.73;;;;;;;9.53;100.00;99781.00;5053480;28;20212;-78
2022/12/21 10:53:24;;;;;;;11.73;10.83;;;;;;;9.62;100.00;99777.31;5053703;28;20581;-78
2022/12/21 10:55:52;;;;;;;11.13;10.23;;;;;;;9.65;100.00;99778.09;5053436;28;20591;-77
2022/12/21 10:58:21;;;;;;;10.80;9.97;;;;;;;9.68;100.00;99771.94;5053457;28;20213;-76
2022/12/21 11:00:59;;;;;;;10.97;10.07;;;;;;;9.71;100.00;99761.44;5053930;28;20194;-78
2022/12/21 11:03:29;;;;;;;10.57;9.77;;;;;;;9.77;100.00;99752.59;5052244;28;20221;-78
2022/12/21 11:05:56;;;;;;;10.40;9.60;;;;;;;9.83;100.00;99748.09;5053723;28;20258;-78
2022/12/21 11:08:26;;;;;;;10.13;9.37;;;;;;;9.87;100.00;99764.47;5054178;28;20275;-78
2022/12/21 11:10:55;;;;;;;9.80;9.00;;;;;;;9.87;100.00;99760.16;5054242;28;20569;-77
2022/12/21 11:13:23;;;;;;;9.20;8.40;;;;;;;9.93;100.00;99766.97;5053902;28;20241;-78
2022/12/21 11:15:58;;;;;;;8.80;8.10;;;;;;;9.93;100.00;99752.16;5054473;28;20205;-78
2022/12/21 11:18:36;;;;;;;9.47;8.77;;;;;;;9.86;100.00;99758.44;5053956;28;20225;-78
2022/12/21 11:21:05;;;;;;;9.70;9.00;;;;;;;9.60;100.00;99747.84;5053625;28;20228;-77
2022/12/21 11:23:32;;;;;;;9.53;8.83;;;;;;;9.78;100.00;99733.47;5053344;28;20283;-77
2022/12/21 11:25:59;;;;;;;9.97;9.17;;;;;;;9.88;100.00;99734.94;5052055;28;20212;-76
2022/12/21 11:28:26;;;;;;;9.33;8.50;;;;;;;9.98;100.00;99727.72;5052032;28;20702;-75
2022/12/21 11:30:56;;;;;;;8.27;7.57;;;;;;;10.10;100.00;99737.78;5052419;28;20203;-77
2022/12/21 11:33:24;;;;;;;8.97;8.07;;;;;;;10.09;100.00;99729.13;5052402;28;20197;-77
2022/12/21 11:36:12;;;;;;;8.50;7.90;;;;;;;10.17;100.00;99731.50;5051907;28;20212;-76
2022/12/21 11:38:39;;;;;;;8.27;7.67;;;;;;;10.25;100.00;99729.53;5051675;28;20642;-76
2022/12/21 11:41:15;;;;;;;8.27;7.47;;;;;;;10.31;100.00;99745.03;5051927;28;20233;-76
2022/12/21 11:43:46;;;;;;;8.90;8.03;;;;;;;10.37;100.00;99757.06;5052038;28;20690;-76
2022/12/21 11:46:25;;;;;;;9.00;8.20;;;;;;;10.37;100.00;99784.91;5052164;28;20205;-76
2022/12/21 11:49:06;;;;;;;9.40;8.70;;;;;;;10.20;100.00;99804.44;5052250;28;20287;-76